Budapest Bridge — VRIZ5 — position and weather

sailwx.info

Track history (hours):
 
Tides and Currents Weather Stations Pressure Air Temp Water Temp Dewpoint Dewpoint Depression Visibility Wind Speed Wind Dir Waves Ship Positions

Budapest Bridge

Last reported at 2016-May-04 17:33 UTC. Time now 2016-May-06 20:36 UTC.
Position N 33°48' E 134°51'.

Length 268 m; draft 11 m.

Type: Cargo ship. MMSI: 477434200.

Date/timePositionNaut miles runAvg speedWind from/ knotsBaromVisibWave heightAir tempDewpointWater temp
2016-May-04 17:33N 33°48' E 134°51'2020.0
2016-May-04 16:34N 34°07' E 134°56'1515.1
2016-May-04 15:33N 34°22' E 135°01'2020.1
2016-May-04 14:34N 34°37' E 135°16'4 3.2
2016-May-04 13:28N 34°41' E 135°16'0 0.0
2016-May-04 12:33N 34°41' E 135°16'0 0.0
2016-May-04 11:21N 34°41' E 135°16'0 0.0
2016-May-04 10:34N 34°41' E 135°16'0 0.0
2016-May-04 09:22N 34°41' E 135°16'0 0.0
2016-May-04 08:34N 34°41' E 135°16'0 0.0
2016-May-04 07:33N 34°41' E 135°16'0 0.0
2016-May-04 06:34N 34°41' E 135°16'0 0.0
2016-May-04 05:28N 34°41' E 135°16'0 0.0
2016-May-04 04:28N 34°41' E 135°16'2 2.4
2016-May-04 03:34N 34°40' E 135°18'10 9.5
2016-May-04 02:34N 34°32' E 135°13'1515.4
2016-May-04 01:33N 34°20' E 135°02'1716.2
2016-May-04 00:31N 34°03' E 134°58'237 4.7
2016-May-01 22:08N 35°01' E 139°37'916.1
2016-May-01 21:33N 35°08' E 139°45'1313.0
2016-May-01 20:33N 35°20' E 139°42'7 6.3
2016-May-01 19:31N 35°27' E 139°40'0 0.0
2016-May-01 18:31N 35°27' E 139°40'0 0.0
2016-May-01 17:31N 35°27' E 139°40'0 0.0
2016-May-01 16:31N 35°27' E 139°40'0 0.0
2016-May-01 15:31N 35°27' E 139°40'0 0.0
2016-May-01 14:31N 35°27' E 139°40'0 0.0
2016-May-01 13:31N 35°27' E 139°40'0 0.0
2016-May-01 12:31N 35°27' E 139°40'0 0.0
2016-May-01 11:31N 35°27' E 139°40'0 0.0
2016-May-01 10:31N 35°27' E 139°40'0 0.0
2016-May-01 09:31N 35°27' E 139°40'0 0.0
2016-May-01 08:31N 35°27' E 139°40'0 0.0
2016-May-01 07:31N 35°27' E 139°40'2 1.7
2016-May-01 06:33N 35°26' E 139°42'5 4.6
2016-May-01 05:33N 35°29' E 139°47'2 1.6
2016-May-01 04:32N 35°29' E 139°45'0 0.0
2016-May-01 03:32N 35°29' E 139°45'0 0.0
2016-May-01 02:32N 35°29' E 139°45'0 0.0
2016-May-01 01:32N 35°29' E 139°45'0 0.0
2016-May-01 00:32N 35°29' E 139°45'0 0.0
2016-Apr-30 23:32N 35°29' E 139°45'0 0.0
2016-Apr-30 22:32N 35°29' E 139°45'2 2.0
2016-Apr-30 21:33N 35°28' E 139°47'9 8.8
2016-Apr-30 20:34N 35°37' E 139°46'0 0.3
2016-Apr-30 19:27N 35°37' E 139°46'0 0.0
2016-Apr-30 18:34N 35°37' E 139°46'0 0.0
2016-Apr-30 17:33N 35°37' E 139°46'0 0.0
2016-Apr-30 16:33N 35°37' E 139°46'0 0.0
2016-Apr-30 15:33N 35°37' E 139°46'0 0.0
2016-Apr-30 14:33N 35°37' E 139°46'0 0.0
2016-Apr-30 13:33N 35°37' E 139°46'0 0.0
2016-Apr-30 12:33N 35°37' E 139°46'0 0.0
2016-Apr-30 11:33N 35°37' E 139°46'0 0.0
2016-Apr-30 10:33N 35°37' E 139°46'0 0.0
2016-Apr-30 09:33N 35°37' E 139°46'0 0.4
2016-Apr-30 08:33N 35°36' E 139°46'10 9.5
2016-Apr-30 07:33N 35°27' E 139°50'1211.8
2016-Apr-30 06:33N 35°16' E 139°47'1111.1
2016-Apr-30 05:33N 35°05' E 139°45'6 6.1
2016-Apr-30 04:33N 35°01' E 139°39'9 8.1
2016-Apr-30 03:26N 34°56' E 139°30'  
Track history (hours):
 
Tides and Currents Weather Stations Pressure Air Temp Water Temp Dewpoint Dewpoint Depression Visibility Wind Speed Wind Dir Waves Ship Positions

Budapest Bridge

Last reported at 2016-May-04 17:33 UTC. Time now 2016-May-06 20:36 UTC.
Position N 33°48' E 134°51'.

Length 268 m; draft 11 m.

Type: Cargo ship. MMSI: 477434200.

Date/timePositionNaut miles runAvg speedWind from/ knotsBaromVisibWave heightAir tempDewpointWater temp
2016-May-04 17:33N 33°48' E 134°51'2020.0
2016-May-04 16:34N 34°07' E 134°56'1515.1
2016-May-04 15:33N 34°22' E 135°01'2020.1
2016-May-04 14:34N 34°37' E 135°16'4 3.2
2016-May-04 13:28N 34°41' E 135°16'0 0.0
2016-May-04 12:33N 34°41' E 135°16'0 0.0
2016-May-04 11:21N 34°41' E 135°16'0 0.0
2016-May-04 10:34N 34°41' E 135°16'0 0.0
2016-May-04 09:22N 34°41' E 135°16'0 0.0
2016-May-04 08:34N 34°41' E 135°16'0 0.0
2016-May-04 07:33N 34°41' E 135°16'0 0.0
2016-May-04 06:34N 34°41' E 135°16'0 0.0
2016-May-04 05:28N 34°41' E 135°16'0 0.0
2016-May-04 04:28N 34°41' E 135°16'2 2.4
2016-May-04 03:34N 34°40' E 135°18'10 9.5
2016-May-04 02:34N 34°32' E 135°13'1515.4
2016-May-04 01:33N 34°20' E 135°02'1716.2
2016-May-04 00:31N 34°03' E 134°58'237 4.7
2016-May-01 22:08N 35°01' E 139°37'916.1
2016-May-01 21:33N 35°08' E 139°45'1313.0
2016-May-01 20:33N 35°20' E 139°42'7 6.3
2016-May-01 19:31N 35°27' E 139°40'0 0.0
2016-May-01 18:31N 35°27' E 139°40'0 0.0
2016-May-01 17:31N 35°27' E 139°40'0 0.0
2016-May-01 16:31N 35°27' E 139°40'0 0.0
2016-May-01 15:31N 35°27' E 139°40'0 0.0
2016-May-01 14:31N 35°27' E 139°40'0 0.0
2016-May-01 13:31N 35°27' E 139°40'0 0.0
2016-May-01 12:31N 35°27' E 139°40'0 0.0
2016-May-01 11:31N 35°27' E 139°40'0 0.0
2016-May-01 10:31N 35°27' E 139°40'0 0.0
2016-May-01 09:31N 35°27' E 139°40'0 0.0
2016-May-01 08:31N 35°27' E 139°40'0 0.0
2016-May-01 07:31N 35°27' E 139°40'2 1.7
2016-May-01 06:33N 35°26' E 139°42'5 4.6
2016-May-01 05:33N 35°29' E 139°47'2 1.6
2016-May-01 04:32N 35°29' E 139°45'0 0.0
2016-May-01 03:32N 35°29' E 139°45'0 0.0
2016-May-01 02:32N 35°29' E 139°45'0 0.0
2016-May-01 01:32N 35°29' E 139°45'0 0.0
2016-May-01 00:32N 35°29' E 139°45'0 0.0
2016-Apr-30 23:32N 35°29' E 139°45'0 0.0
2016-Apr-30 22:32N 35°29' E 139°45'2 2.0
2016-Apr-30 21:33N 35°28' E 139°47'9 8.8
2016-Apr-30 20:34N 35°37' E 139°46'0 0.3
2016-Apr-30 19:27N 35°37' E 139°46'0 0.0
2016-Apr-30 18:34N 35°37' E 139°46'0 0.0
2016-Apr-30 17:33N 35°37' E 139°46'0 0.0
2016-Apr-30 16:33N 35°37' E 139°46'0 0.0
2016-Apr-30 15:33N 35°37' E 139°46'0 0.0
2016-Apr-30 14:33N 35°37' E 139°46'0 0.0
2016-Apr-30 13:33N 35°37' E 139°46'0 0.0
2016-Apr-30 12:33N 35°37' E 139°46'0 0.0
2016-Apr-30 11:33N 35°37' E 139°46'0 0.0
2016-Apr-30 10:33N 35°37' E 139°46'0 0.0
2016-Apr-30 09:33N 35°37' E 139°46'0 0.4
2016-Apr-30 08:33N 35°36' E 139°46'10 9.5
2016-Apr-30 07:33N 35°27' E 139°50'1211.8
2016-Apr-30 06:33N 35°16' E 139°47'1111.1
2016-Apr-30 05:33N 35°05' E 139°45'6 6.1
2016-Apr-30 04:33N 35°01' E 139°39'9 8.1
2016-Apr-30 03:26N 34°56' E 139°30'  

Dump ship's entire track history